NY/NJ Local METAR Reports

 

KNYC - NYC/Central Park, NY, USA
Distance from Hoboken: NE 4mi, 7km
Updated: 09/20/2018 3:51pm
Partly cloudy
Partly cloudy
 Wind from NE
Wind: NE 5 mph , 7 km/h
Temperature: 70°F , 21°C
Dew Point: 61°F , 16°C
Humidity: 73%
Barometer: 30.24 inHg , 1024 hPa
Clouds: Partly cloudy
Visibility: 10 miles , 16 km
Cloud details: Partly cloudy 5500 ft
2018/09/20 19:51 KNYC 201951Z AUTO 05004KT 10SM SCT055 21/16 A3024 RMK AO2 SLP229 T02110156 $
KEWR - Newark, NJ, USA
Distance from Hoboken: WSW 8mi, 13km
Updated: 09/20/2018 3:51pm
Mostly cloudy
Mostly cloudy
 Wind from calm
Wind: Calm
Temperature: 73°F , 23°C
Dew Point: 57°F , 14°C
Humidity: 57%
Barometer: 30.21 inHg , 1023 hPa
Clouds: Mostly cloudy
Visibility: 10 miles , 16 km
Cloud details: Few Clouds 3200 ft
Mostly cloudy 3800 ft
Mostly cloudy 5500 ft
2018/09/20 19:51 KEWR 201951Z 00000KT 10SM FEW032 BKN038 BKN055 23/14 A3021 RMK AO2 SLP228 T02280139 $
 
KLGA - NYC/La Guardia, NY, USA
Distance from Hoboken: ENE 8mi, 13km
Updated: 09/20/2018 3:51pm
Partly cloudy
Partly cloudy
 Wind from NE
Wind: NE 7 mph , 11 km/h
Temperature: 73°F , 23°C
Dew Point: 57°F , 14°C
Humidity: 57%
Barometer: 30.20 inHg , 1022.7 hPa
Clouds: Partly cloudy
Visibility: 10 miles , 16 km
Cloud details: Few Clouds 4200 ft
Partly cloudy 6000 ft
2018/09/20 19:51 KLGA 201951Z 04006KT 10SM FEW042 SCT060 23/14 A3020 RMK AO2 SLP227 T02280139 $
KTEB - Teterboro, NJ, USA
Distance from Hoboken: N 9mi, 14km
Updated: 09/20/2018 3:51pm
Mostly cloudy
Mostly cloudy
 Wind from varies
Wind: varies 3 mph , 6 km/h
Temperature: 73°F , 23°C
Dew Point: 59°F , 15°C
Humidity: 61%
Barometer: 30.20 inHg , 1022.7 hPa
Clouds: Mostly cloudy
Visibility: 10 miles , 16 km
Cloud details: Mostly cloudy 3700 ft
Mostly cloudy 6000 ft
2018/09/20 19:51 KTEB 201951Z VRB03KT 10SM BKN037 BKN060 23/15 A3020 RMK AO2 SLP225 T02280150
 
KJFK - NYC/Jfk Arpt, NY, USA
Distance from Hoboken: ESE 16mi, 25km
Updated: 09/20/2018 3:51pm
Mostly cloudy
Mostly cloudy
 Wind from SSE
Wind: SSE 7 mph , 11 km/h
Temperature: 70°F , 21°C
Dew Point: 63°F , 17°C
Humidity: 78%
Barometer: 30.22 inHg , 1023.4 hPa
Clouds: Mostly cloudy
Visibility: 10 miles , 16 km
Cloud details: Mostly cloudy 3700 ft
Mostly cloudy 5500 ft
Mostly cloudy 25000 ft
2018/09/20 19:51 KJFK 201951Z 15006KT 10SM BKN037 BKN055 BKN250 21/17 A3022 RMK AO2 SLP234 T02110167 $
KCDW - Caldwell, NJ, USA
Distance from Hoboken: NW 16mi, 26km
Updated: 09/20/2018 3:53pm
Overcast
Overcast
 Wind from S
Wind: S 6 mph , 9 km/h
Temperature: 72°F , 22°C
Dew Point: 57°F , 14°C
Humidity: 61%
Barometer: 30.21 inHg , 1023 hPa
Clouds: Overcast
Visibility: 10 miles , 16 km
Cloud details: Overcast 3200 ft
2018/09/20 19:53 KCDW 201953Z 17005KT 10SM OVC032 22/14 A3021 RMK AO2 SLP235 T02170144
 
KMMU - Morristown Muni, NJ, USA
Distance from Hoboken: W 20mi, 33km
Updated: 09/20/2018 4:45pm
Overcast
Overcast
 Wind from calm
Wind: Calm
Temperature: 72°F , 22°C
Dew Point: 61°F , 16°C
Humidity: 69%
Barometer: 30.21 inHg , 1023 hPa
Clouds: Overcast
Visibility: 10 miles , 16 km
Cloud details: Overcast 5000 ft
2018/09/20 20:45 KMMU 202045Z 00000KT 10SM OVC050 22/16 A3021
KHPN - White Plains, NY, USA
Distance from Hoboken: NE 28mi, 46km
Updated: 09/20/2018 3:56pm
Partly cloudy
Partly cloudy
 Wind from S
Wind: S 8 mph , 13 km/h
Temperature: 70°F , 21°C
Dew Point: 54°F , 12°C
Humidity: 57%
Barometer: 30.22 inHg , 1023.4 hPa
Clouds: Partly cloudy
Visibility: 10 miles , 16 km
Cloud details: Few Clouds 2600 ft
Partly cloudy 5000 ft
2018/09/20 19:56 KHPN 201956Z 19007KT 10SM FEW026 SCT050 21/12 A3022 RMK AO2 SLP230 T02110122
 
KFRG - Farmingdale, NY, USA
Distance from Hoboken: E 32mi, 52km
Updated: 09/20/2018 3:53pm
Overcast
Overcast
 Wind from SSE
Wind: SSE 9 mph , 15 km/h
Temperature: 70°F , 21°C
Dew Point: 59°F , 15°C
Humidity: 69%
Barometer: 30.22 inHg , 1023.4 hPa
Clouds: Overcast
Visibility: 10 miles , 16 km
Cloud details: Overcast 3000 ft
2018/09/20 19:53 KFRG 201953Z 15008KT 10SM OVC030 21/15 A3022 RMK AO2 SLP232 T02060150
KSMQ - Somerville, NJ, USA
Distance from Hoboken: WSW 34mi, 55km
Updated: 09/20/2018 4:37pm
Overcast
Overcast
 Wind from varies
Wind: varies 3 mph , 6 km/h
Temperature: 70°F , 21°C
Dew Point: 63°F , 17°C
Humidity: 78%
Barometer: 30.19 inHg , 1022.4 hPa
Clouds: Overcast
Visibility: 10 miles , 16 km
Cloud details: Overcast 2900 ft
2018/09/20 20:37 KSMQ 202037Z AUTO VRB03KT 10SM OVC029 21/17 A3019 RMK AO2 T02110167
 
KBLM - Belmar/Farmdale, NJ, USA
Distance from Hoboken: S 40mi, 64km
Updated: 09/20/2018 3:56pm
Mostly cloudy
Mostly cloudy
 Wind from ESE
Wind: ESE 7 mph , 11 km/h
Temperature: 70°F , 21°C
Dew Point: 59°F , 15°C
Humidity: 69%
Barometer: 30.23 inHg , 1023.7 hPa
Clouds: Mostly cloudy
Visibility: 10 miles , 16 km
Cloud details: Few Clouds 2100 ft
Mostly cloudy 5500 ft
2018/09/20 19:56 KBLM 201956Z AUTO 12006KT 10SM FEW021 BKN055 21/15 A3023 RMK AO2 SLP240 T02060150
K12N - Andover, NJ, USA
Distance from Hoboken: WNW 41mi, 67km
Updated: 09/20/2018 3:54pm

 Wind from calm
Wind: Calm
Temperature: 70°F , 21°C
Dew Point: 61°F , 16°C
Humidity: 73%
Barometer: 30.22 inHg , 1023.4 hPa
2018/09/20 19:54 K12N 201954Z AUTO 00000KT 21/16 A3022 RMK AO1 SLP229 T02060156
 
KFWN - Sussex, NJ, USA
Distance from Hoboken: NW 45mi, 72km
Updated: 09/20/2018 3:53pm
Overcast
Overcast
 Wind from varies
Wind: varies 3 mph , 6 km/h
Temperature: 68°F , 20°C
Dew Point: 63°F , 17°C
Humidity: 83%
Barometer: 30.22 inHg , 1023.4 hPa
Clouds: Overcast
Visibility: 10 miles , 16 km
Cloud details: Overcast 1700 ft
2018/09/20 19:53 KFWN 201953Z AUTO VRB03KT 10SM OVC017 20/17 A3022 RMK AO2 RAB1858E04B39E49 SLP230 P0000 T02000167
KISP - Islip, NY, USA
Distance from Hoboken: E 49mi, 79km
Updated: 09/20/2018 3:56pm
Mostly cloudy
Mostly cloudy
 Wind from SE
Wind: SE 12 mph , 19 km/h
Temperature: 72°F , 22°C
Dew Point: 61°F , 16°C
Humidity: 69%
Barometer: 30.21 inHg , 1023 hPa
Clouds: Mostly cloudy
Visibility: 10 miles , 16 km
Cloud details: Few Clouds 2700 ft
Partly cloudy 3800 ft
Mostly cloudy 5500 ft
2018/09/20 19:56 KISP 201956Z 14010KT 10SM FEW027 SCT038 BKN055 22/16 A3021 RMK AO2 SLP230 T02170156